createdAt,value
2022-12-18T00:02:13.551Z,59.28
2022-12-18T00:04:40.122Z,60.26
2022-12-18T00:07:06.651Z,60.14
2022-12-18T00:09:40.081Z,60.63
2022-12-18T00:14:45.199Z,60.94
2022-12-18T00:17:11.907Z,61.06
2022-12-18T00:19:38.387Z,60.94
2022-12-18T00:22:04.969Z,60.54
2022-12-18T00:24:31.680Z,60.32
2022-12-18T00:26:58.122Z,60.13
2022-12-18T00:29:24.564Z,60.53
2022-12-18T00:31:51.141Z,60.09
2022-12-18T00:34:17.666Z,60.80
2022-12-18T00:36:44.228Z,60.90
2022-12-18T00:39:12.957Z,60.37
2022-12-18T00:41:58.063Z,60.68
2022-12-18T00:44:25.592Z,61.18
2022-12-18T00:46:52.180Z,61.62
2022-12-18T00:49:20.330Z,61.07
2022-12-18T00:51:47.019Z,60.75
2022-12-18T00:54:13.530Z,61.26
2022-12-18T00:56:48.465Z,61.38
2022-12-18T00:59:16.862Z,61.36
2022-12-18T01:01:43.628Z,60.56
2022-12-18T01:04:10.411Z,60.05
2022-12-18T01:06:37.582Z,60.63
2022-12-18T01:09:04.179Z,61.04
2022-12-18T01:11:31.385Z,61.35
2022-12-18T01:13:57.988Z,61.26
2022-12-18T01:16:24.585Z,60.55
2022-12-18T01:18:55.570Z,60.99
2022-12-18T01:21:22.938Z,61.32
2022-12-18T01:23:53.256Z,61.65
2022-12-18T01:26:19.880Z,60.96
2022-12-18T01:28:46.390Z,61.70
2022-12-18T01:31:21.797Z,61.62
2022-12-18T01:33:49.686Z,60.52
2022-12-18T01:36:23.559Z,60.92
2022-12-18T01:38:50.578Z,60.21
2022-12-18T01:41:19.346Z,61.51
2022-12-18T01:43:49.240Z,61.57
2022-12-18T01:46:17.778Z,61.33
2022-12-18T01:48:46.365Z,61.39
2022-12-18T01:51:13.506Z,60.86
2022-12-18T01:53:42.151Z,60.52
2022-12-18T01:56:10.285Z,61.69
2022-12-18T01:58:47.026Z,60.66
2022-12-18T02:01:13.703Z,60.58
2022-12-18T02:03:43.679Z,60.00
2022-12-18T02:06:34.465Z,60.52
2022-12-18T02:09:12.602Z,60.53
2022-12-18T02:11:53.736Z,60.91
2022-12-18T02:14:26.703Z,61.35
2022-12-18T02:17:06.072Z,60.56
2022-12-18T02:19:44.287Z,61.08
2022-12-18T02:22:29.676Z,61.49
2022-12-18T02:24:59.143Z,61.06
2022-12-18T02:27:25.874Z,60.74
2022-12-18T02:29:58.198Z,61.46
2022-12-18T02:32:31.339Z,61.73
2022-12-18T02:34:58.697Z,61.27
2022-12-18T02:37:28.965Z,61.22
2022-12-18T02:39:57.320Z,60.71
2022-12-18T02:42:24.789Z,61.80
2022-12-18T02:44:52.689Z,60.54
2022-12-18T02:47:25.667Z,60.62
2022-12-18T02:50:01.294Z,61.03
2022-12-18T02:52:43.208Z,60.07
2022-12-18T02:55:33.632Z,60.96
2022-12-18T02:58:17.904Z,60.40
2022-12-18T03:01:21.042Z,60.40
2022-12-18T03:03:53.217Z,59.72
2022-12-18T03:06:32.980Z,59.84
2022-12-18T03:09:03.585Z,60.44
2022-12-18T03:11:52.667Z,59.84
2022-12-18T03:14:21.597Z,60.02
2022-12-18T03:16:52.116Z,59.70
2022-12-18T03:19:22.170Z,60.06
2022-12-18T03:21:53.170Z,60.39
2022-12-18T03:24:20.979Z,60.41
2022-12-18T03:26:51.840Z,60.80
2022-12-18T03:29:37.910Z,60.38
2022-12-18T03:32:16.403Z,60.53
2022-12-18T03:34:43.586Z,60.67
2022-12-18T03:37:13.042Z,60.40
2022-12-18T03:39:41.062Z,61.07
2022-12-18T03:42:16.551Z,61.07
2022-12-18T03:45:08.899Z,60.72
2022-12-18T03:47:56.337Z,60.61
2022-12-18T03:50:57.681Z,60.22
2022-12-18T03:53:40.642Z,60.64
2022-12-18T03:56:09.451Z,60.42
2022-12-18T03:58:42.100Z,59.93
2022-12-18T04:01:23.152Z,59.45
2022-12-18T04:03:50.211Z,59.65
2022-12-18T04:06:19.087Z,60.34
2022-12-18T04:08:46.967Z,60.52
2022-12-18T04:11:16.927Z,61.05
2022-12-18T04:13:45.379Z,61.68
2022-12-18T04:16:19.542Z,60.97
2022-12-18T04:18:49.138Z,60.92
2022-12-18T04:21:16.030Z,60.79
2022-12-18T04:23:42.862Z,60.64
2022-12-18T04:26:09.656Z,60.32
2022-12-18T04:28:45.205Z,59.60
2022-12-18T04:31:13.469Z,60.59
2022-12-18T04:33:40.407Z,59.64
2022-12-18T04:36:07.903Z,60.44
2022-12-18T04:38:34.954Z,59.66
2022-12-18T04:41:07.196Z,59.86
2022-12-18T04:43:34.698Z,60.55
2022-12-18T04:46:06.336Z,60.11
2022-12-18T04:48:32.960Z,60.06
2022-12-18T04:50:59.445Z,59.76
2022-12-18T04:53:26.425Z,59.40
2022-12-18T04:56:04.345Z,59.75
2022-12-18T04:58:30.822Z,60.71
2022-12-18T05:00:57.274Z,60.83
2022-12-18T05:03:23.857Z,60.30
2022-12-18T05:05:51.973Z,60.45
2022-12-18T05:08:19.158Z,60.29
2022-12-18T05:10:46.549Z,60.75
2022-12-18T05:13:13.026Z,60.45
2022-12-18T05:15:39.621Z,60.49
2022-12-18T05:18:06.147Z,60.87
2022-12-18T05:20:33.006Z,60.75
2022-12-18T05:22:59.496Z,60.67
2022-12-18T05:25:26.085Z,60.91
2022-12-18T05:27:52.546Z,60.68
2022-12-18T05:30:19.069Z,61.31
2022-12-18T05:32:45.542Z,60.82
2022-12-18T05:35:12.307Z,61.42
2022-12-18T05:37:42.954Z,61.19
2022-12-18T05:40:10.985Z,60.91
2022-12-18T05:42:37.529Z,61.10
2022-12-18T05:45:04.833Z,61.32
2022-12-18T05:47:31.371Z,60.83
2022-12-18T05:49:57.856Z,62.14
2022-12-18T05:52:24.415Z,61.29
2022-12-18T05:54:51.007Z,60.86
2022-12-18T05:57:17.533Z,60.01
2022-12-18T05:59:44.112Z,60.59
2022-12-18T06:02:10.738Z,59.77
2022-12-18T06:04:37.398Z,59.19
2022-12-18T06:07:03.903Z,58.83
2022-12-18T06:09:30.569Z,58.91
2022-12-18T06:11:57.111Z,59.04
2022-12-18T06:14:23.627Z,58.86
2022-12-18T06:16:52.466Z,59.69
2022-12-18T06:19:18.893Z,59.72
2022-12-18T06:21:45.574Z,59.41
2022-12-18T06:24:12.099Z,60.52
2022-12-18T06:26:39.867Z,60.23
2022-12-18T06:29:06.818Z,59.98
2022-12-18T06:31:33.474Z,60.33
2022-12-18T06:34:03.345Z,60.15
2022-12-18T06:36:30.651Z,60.57
2022-12-18T06:38:58.413Z,61.06
2022-12-18T06:41:24.885Z,60.69
2022-12-18T06:43:52.853Z,61.10
2022-12-18T06:46:21.212Z,61.04
2022-12-18T06:48:49.823Z,60.49
2022-12-18T06:51:18.273Z,60.14
2022-12-18T06:53:44.834Z,59.76
2022-12-18T06:56:11.352Z,59.98
2022-12-18T06:58:38.965Z,60.65
2022-12-18T07:01:07.878Z,60.24
2022-12-18T07:03:34.606Z,60.14
2022-12-18T07:06:01.093Z,59.26
2022-12-18T07:08:27.636Z,59.91
2022-12-18T07:10:56.357Z,59.96
2022-12-18T07:13:23.284Z,60.77
2022-12-18T07:15:49.745Z,60.62
2022-12-18T07:18:16.331Z,60.16
2022-12-18T07:20:42.872Z,60.10
2022-12-18T07:23:09.325Z,60.09
2022-12-18T07:25:36.462Z,59.51
2022-12-18T07:28:03.494Z,59.78
2022-12-18T07:30:30.102Z,60.02
2022-12-18T07:32:58.900Z,60.20
2022-12-18T07:35:25.567Z,59.38
2022-12-18T07:37:52.293Z,59.66
2022-12-18T07:40:18.918Z,59.94
2022-12-18T07:42:45.387Z,59.55
2022-12-18T07:45:11.912Z,59.38
2022-12-18T07:47:38.560Z,59.86
2022-12-18T07:50:06.272Z,58.89
2022-12-18T07:52:32.766Z,59.59
2022-12-18T07:54:59.881Z,59.65
2022-12-18T07:57:49.521Z,59.78
2022-12-18T08:00:13.860Z,60.40
2022-12-18T08:02:40.477Z,59.53
2022-12-18T08:05:09.206Z,60.90
2022-12-18T08:07:35.744Z,60.18
2022-12-18T08:10:02.197Z,59.45
2022-12-18T08:12:28.716Z,59.90
2022-12-18T08:14:55.222Z,59.92
2022-12-18T08:17:21.679Z,60.58
2022-12-18T08:19:48.193Z,61.23
2022-12-18T08:22:14.781Z,61.35
2022-12-18T08:24:41.314Z,60.45
2022-12-18T08:29:54.212Z,59.89
2022-12-18T08:32:20.998Z,59.32
2022-12-18T08:34:47.605Z,59.93
2022-12-18T08:37:14.104Z,59.62
2022-12-18T08:39:40.642Z,59.94
2022-12-18T08:42:25.654Z,59.84
2022-12-18T08:44:52.144Z,59.89
2022-12-18T08:47:20.682Z,59.58
2022-12-18T08:49:47.150Z,60.66
2022-12-18T08:52:16.434Z,60.57
2022-12-18T08:54:43.158Z,59.98
2022-12-18T08:57:09.873Z,60.44
2022-12-18T08:59:36.326Z,60.69
2022-12-18T09:02:02.999Z,60.69
2022-12-18T09:04:29.661Z,62.13
2022-12-18T09:06:56.135Z,61.69
2022-12-18T09:09:22.808Z,61.58
2022-12-18T09:11:49.286Z,61.34
2022-12-18T09:14:15.742Z,61.03
2022-12-18T09:16:42.264Z,60.44
2022-12-18T09:19:09.622Z,61.02
2022-12-18T09:21:43.360Z,61.51
2022-12-18T09:24:14.340Z,61.40
2022-12-18T09:26:40.863Z,60.46
2022-12-18T09:29:10.117Z,60.35
2022-12-18T09:31:37.762Z,59.70
2022-12-18T09:34:04.257Z,60.42
2022-12-18T09:36:30.926Z,60.17
2022-12-18T09:38:57.374Z,60.04
2022-12-18T09:41:42.285Z,60.00
2022-12-18T09:44:17.068Z,59.70
2022-12-18T09:47:09.166Z,59.58
2022-12-18T09:49:40.493Z,59.85
2022-12-18T09:52:13.009Z,60.98
2022-12-18T09:54:41.097Z,60.66
2022-12-18T09:57:13.955Z,60.49
2022-12-18T09:59:41.522Z,60.54
2022-12-18T10:02:17.246Z,60.17
2022-12-18T10:04:44.027Z,60.54
2022-12-18T10:07:35.023Z,60.36
2022-12-18T10:10:32.558Z,60.90
2022-12-18T10:13:05.475Z,60.48
2022-12-18T10:15:44.547Z,60.85
2022-12-18T10:18:48.111Z,60.12
2022-12-18T10:21:19.987Z,60.15
2022-12-18T10:23:55.824Z,59.62
2022-12-18T10:26:22.449Z,59.86
2022-12-18T10:28:49.164Z,60.66
2022-12-18T10:31:24.722Z,59.92
2022-12-18T10:33:52.010Z,59.41
2022-12-18T10:36:18.545Z,59.53
2022-12-18T10:38:45.243Z,58.69
2022-12-18T10:41:23.010Z,58.35
2022-12-18T10:43:49.614Z,57.54
2022-12-18T10:46:18.457Z,57.39
2022-12-18T10:48:52.992Z,56.92
2022-12-18T10:51:34.424Z,57.12
2022-12-18T10:54:03.566Z,56.90
2022-12-18T10:56:37.858Z,57.43
2022-12-18T10:59:10.337Z,57.19
2022-12-18T11:02:00.279Z,57.22
2022-12-18T11:04:27.968Z,57.18
2022-12-18T11:06:55.854Z,58.15
2022-12-18T11:09:27.686Z,57.09
2022-12-18T11:11:56.852Z,57.24
2022-12-18T11:14:29.954Z,57.54
2022-12-18T11:17:24.430Z,57.19
2022-12-18T11:19:43.980Z,56.23
2022-12-18T11:22:34.871Z,57.69
2022-12-18T11:28:01.445Z,57.18
2022-12-18T11:30:37.030Z,58.00
2022-12-18T11:33:14.271Z,57.82
2022-12-18T11:35:53.767Z,58.25
2022-12-18T11:38:33.751Z,57.18
2022-12-18T11:41:05.267Z,58.23
2022-12-18T11:43:39.948Z,57.59
2022-12-18T11:46:13.576Z,57.42
2022-12-18T11:48:47.166Z,56.75
2022-12-18T11:51:27.247Z,57.27
2022-12-18T11:53:55.013Z,56.90
2022-12-18T11:56:31.083Z,56.06
2022-12-18T11:59:06.545Z,57.33
2022-12-18T12:01:47.557Z,57.13
2022-12-18T12:04:23.732Z,57.07
2022-12-18T12:07:14.413Z,56.54
2022-12-18T12:10:10.259Z,55.88
2022-12-18T12:13:04.608Z,56.15
2022-12-18T12:15:39.647Z,56.10
2022-12-18T12:18:21.391Z,56.21
2022-12-18T12:21:09.765Z,56.85
2022-12-18T12:24:23.889Z,57.26
2022-12-18T12:27:03.848Z,57.71
2022-12-18T12:30:00.834Z,57.10
2022-12-18T12:32:39.316Z,56.89
2022-12-18T12:35:12.062Z,57.00
2022-12-18T12:38:05.266Z,56.91
2022-12-18T12:40:52.566Z,56.70
2022-12-18T12:43:49.489Z,55.46
2022-12-18T12:46:19.783Z,56.55
2022-12-18T12:48:52.366Z,57.36
2022-12-18T12:51:26.210Z,56.62
2022-12-18T12:53:53.412Z,56.47
2022-12-18T12:56:22.131Z,57.07
2022-12-18T12:59:06.854Z,56.73
2022-12-18T13:01:58.637Z,56.44
2022-12-18T13:04:42.804Z,57.41
2022-12-18T13:07:29.578Z,55.47
2022-12-18T13:10:35.547Z,56.05
2022-12-18T13:13:09.072Z,55.39
2022-12-18T13:15:46.121Z,55.84
2022-12-18T13:18:20.557Z,56.16
2022-12-18T13:20:56.335Z,57.44
2022-12-18T13:23:26.661Z,56.31
2022-12-18T13:26:11.400Z,56.86
2022-12-18T13:28:47.561Z,56.23
2022-12-18T13:31:14.865Z,56.88
2022-12-18T13:34:09.390Z,56.92
2022-12-18T13:36:33.433Z,56.06
2022-12-18T13:39:19.792Z,56.29
2022-12-18T13:41:54.308Z,56.44
2022-12-18T13:44:38.565Z,55.28
2022-12-18T13:47:27.646Z,56.01
2022-12-18T13:49:54.739Z,55.88
2022-12-18T13:52:36.233Z,56.07
2022-12-18T13:55:06.225Z,56.48
2022-12-18T13:57:39.258Z,57.07
2022-12-18T14:00:21.315Z,56.06
2022-12-18T14:02:48.006Z,55.56
2022-12-18T14:05:28.262Z,56.11
2022-12-18T14:07:55.564Z,56.25
2022-12-18T14:10:45.571Z,56.63
2022-12-18T14:13:11.021Z,57.10
2022-12-18T14:15:47.709Z,57.05
2022-12-18T14:18:36.405Z,56.79
2022-12-18T14:21:04.376Z,57.24
2022-12-18T14:23:36.685Z,57.10
2022-12-18T14:26:25.357Z,57.70
2022-12-18T14:28:52.157Z,58.06
2022-12-18T14:31:26.534Z,58.48
2022-12-18T14:33:53.723Z,58.46
2022-12-18T14:36:28.237Z,57.92
2022-12-18T14:38:59.483Z,58.19
2022-12-18T14:41:26.764Z,59.04
2022-12-18T14:43:54.887Z,58.11
2022-12-18T14:46:36.541Z,58.69
2022-12-18T14:49:05.939Z,58.59
2022-12-18T14:51:34.391Z,58.45
2022-12-18T14:54:04.959Z,59.68
2022-12-18T14:56:33.529Z,58.70
2022-12-18T14:59:15.988Z,58.69
2022-12-18T15:02:04.290Z,59.17
2022-12-18T15:04:36.168Z,59.51
2022-12-18T15:07:14.790Z,59.11
2022-12-18T15:10:01.139Z,58.95
2022-12-18T15:12:39.479Z,60.18
2022-12-18T15:15:06.710Z,59.57
2022-12-18T15:17:33.347Z,60.28
2022-12-18T15:20:09.737Z,59.91
2022-12-18T15:22:37.293Z,60.60
2022-12-18T15:25:20.814Z,60.46
2022-12-18T15:27:48.153Z,60.55
2022-12-18T15:30:20.118Z,60.81
2022-12-18T15:32:47.734Z,60.26
2022-12-18T15:35:16.899Z,61.05
2022-12-18T15:37:43.932Z,61.20
2022-12-18T15:40:24.748Z,60.75
2022-12-18T15:43:13.184Z,60.78
2022-12-18T15:45:40.001Z,61.91
2022-12-18T15:48:22.210Z,60.94
2022-12-18T15:50:50.571Z,61.54
2022-12-18T15:53:17.474Z,61.27
2022-12-18T15:56:10.178Z,60.68
2022-12-18T15:58:36.958Z,61.01
2022-12-18T16:01:04.784Z,60.43
2022-12-18T16:03:31.417Z,61.08
2022-12-18T16:05:59.289Z,60.58
2022-12-18T16:08:26.459Z,61.10
2022-12-18T16:10:53.000Z,61.10
2022-12-18T16:13:20.448Z,61.33
2022-12-18T16:15:47.058Z,61.59
2022-12-18T16:18:13.799Z,61.56
2022-12-18T16:20:40.378Z,61.82
2022-12-18T16:23:06.885Z,62.07
2022-12-18T16:25:33.757Z,61.52
2022-12-18T16:28:00.468Z,62.17
2022-12-18T16:30:32.331Z,62.03
2022-12-18T16:33:05.094Z,61.20
2022-12-18T16:35:31.902Z,62.07
2022-12-18T16:37:58.513Z,61.62
2022-12-18T16:40:25.628Z,62.09
2022-12-18T16:43:00.854Z,61.54
2022-12-18T16:45:27.378Z,62.11
2022-12-18T16:47:53.862Z,61.52
2022-12-18T16:50:20.353Z,60.94
2022-12-18T16:52:46.966Z,61.96
2022-12-18T16:55:13.479Z,61.29
2022-12-18T16:57:40.029Z,61.24
2022-12-18T17:00:07.370Z,61.29
2022-12-18T17:02:34.201Z,61.56
2022-12-18T17:05:00.859Z,61.25
2022-12-18T17:07:28.321Z,61.03
2022-12-18T17:09:54.992Z,61.29
2022-12-18T17:12:21.659Z,61.21
2022-12-18T17:14:48.238Z,61.88
2022-12-18T17:17:23.766Z,61.07
2022-12-18T17:19:51.595Z,60.73
2022-12-18T17:22:18.236Z,61.75
2022-12-18T17:24:44.770Z,61.96
2022-12-18T17:27:11.438Z,62.63
2022-12-18T17:29:41.284Z,63.28
2022-12-18T17:32:11.832Z,62.53
2022-12-18T17:34:40.630Z,63.51
2022-12-18T17:37:07.145Z,63.98
2022-12-18T17:39:33.672Z,63.02
2022-12-18T17:42:01.240Z,62.87
2022-12-18T17:44:27.766Z,62.23
2022-12-18T17:46:54.374Z,61.84
2022-12-18T17:49:21.501Z,61.45
2022-12-18T17:51:48.440Z,62.59
2022-12-18T17:54:14.996Z,62.29
2022-12-18T17:56:41.610Z,62.22
2022-12-18T17:59:08.242Z,62.70
2022-12-18T18:01:38.569Z,62.78
2022-12-18T18:04:09.150Z,62.45
2022-12-18T18:06:38.779Z,62.34
2022-12-18T18:09:06.698Z,61.81
2022-12-18T18:11:56.498Z,62.35
2022-12-18T18:14:23.307Z,62.20
2022-12-18T18:16:51.990Z,61.58
2022-12-18T18:19:23.419Z,61.85
2022-12-18T18:21:51.866Z,61.50
2022-12-18T18:24:23.166Z,61.72
2022-12-18T18:26:50.573Z,60.66
2022-12-18T18:29:20.830Z,62.23
2022-12-18T18:31:48.361Z,61.84
2022-12-18T18:34:21.327Z,61.73
2022-12-18T18:36:47.983Z,61.60
2022-12-18T18:39:14.906Z,61.67
2022-12-18T18:41:42.798Z,61.88
2022-12-18T18:44:16.529Z,62.57
2022-12-18T18:46:43.286Z,62.10
2022-12-18T18:49:09.790Z,61.63
2022-12-18T18:51:36.289Z,61.18
2022-12-18T18:54:02.908Z,61.18
2022-12-18T18:59:16.454Z,61.43
2022-12-18T19:01:43.206Z,60.64
2022-12-18T19:04:10.050Z,61.59
2022-12-18T19:06:36.581Z,60.91
2022-12-18T19:09:04.920Z,60.63
2022-12-18T19:11:49.863Z,60.49
2022-12-18T19:14:17.041Z,60.52
2022-12-18T19:16:45.395Z,61.29
2022-12-18T19:19:12.927Z,61.20
2022-12-18T19:21:41.000Z,61.50
2022-12-18T19:24:07.804Z,60.78
2022-12-18T19:26:36.060Z,60.61
2022-12-18T19:29:08.105Z,60.58
2022-12-18T19:31:36.933Z,60.53
2022-12-18T19:34:06.471Z,60.23
2022-12-18T19:36:33.676Z,59.91
2022-12-18T19:39:01.339Z,60.46
2022-12-18T19:41:31.098Z,60.73
2022-12-18T19:43:58.370Z,60.97
2022-12-18T19:46:25.198Z,60.93
2022-12-18T19:48:52.325Z,61.03
2022-12-18T19:51:25.692Z,60.50
2022-12-18T19:53:58.142Z,61.45
2022-12-18T19:56:28.722Z,61.56
2022-12-18T19:58:55.574Z,60.96
2022-12-18T20:01:23.457Z,61.81
2022-12-18T20:03:53.628Z,61.78
2022-12-18T20:06:51.560Z,61.31
2022-12-18T20:09:19.099Z,61.22
2022-12-18T20:11:45.919Z,61.78
2022-12-18T20:14:14.290Z,60.20
2022-12-18T20:16:43.443Z,61.56
2022-12-18T20:19:12.513Z,61.39
2022-12-18T20:21:39.069Z,61.53
2022-12-18T20:24:07.247Z,61.45
2022-12-18T20:26:34.008Z,60.69
2022-12-18T20:29:00.625Z,62.22
2022-12-18T20:31:27.146Z,62.41
2022-12-18T20:33:59.575Z,61.94
2022-12-18T20:36:27.108Z,61.98
2022-12-18T20:38:58.265Z,63.08
2022-12-18T20:41:37.871Z,60.76
2022-12-18T20:44:13.728Z,61.11
2022-12-18T20:46:56.254Z,61.21
2022-12-18T20:49:24.363Z,61.45
2022-12-18T20:51:52.501Z,61.82
2022-12-18T20:54:19.169Z,61.53
2022-12-18T20:56:45.683Z,61.58
2022-12-18T20:59:12.164Z,61.25
2022-12-18T21:01:40.041Z,60.97
2022-12-18T21:04:11.755Z,61.54
2022-12-18T21:06:38.286Z,60.82
2022-12-18T21:09:04.754Z,60.95
2022-12-18T21:11:51.626Z,60.52
2022-12-18T21:14:24.186Z,61.59
2022-12-18T21:16:54.085Z,60.51
2022-12-18T21:19:25.574Z,59.85
2022-12-18T21:21:53.122Z,60.94
2022-12-18T21:24:20.111Z,61.27
2022-12-18T21:26:48.585Z,60.21
2022-12-18T21:29:17.680Z,60.63
2022-12-18T21:31:45.373Z,60.60
2022-12-18T21:34:22.761Z,59.95
2022-12-18T21:36:49.510Z,60.37
2022-12-18T21:39:16.529Z,60.78
2022-12-18T21:42:01.663Z,59.74
2022-12-18T21:44:28.728Z,60.38
2022-12-18T21:47:00.587Z,60.70
2022-12-18T21:49:33.277Z,60.62
2022-12-18T21:52:00.965Z,60.48
2022-12-18T21:54:28.577Z,60.60
2022-12-18T21:56:55.877Z,60.47
2022-12-18T21:59:26.135Z,59.91
2022-12-18T22:01:54.345Z,60.46
2022-12-18T22:04:21.425Z,60.06
2022-12-18T22:06:48.561Z,59.68
2022-12-18T22:09:17.080Z,60.27
2022-12-18T22:11:43.705Z,60.09
2022-12-18T22:14:10.453Z,59.93
2022-12-18T22:16:37.033Z,60.58
2022-12-18T22:19:04.781Z,60.01
2022-12-18T22:21:35.864Z,59.25
2022-12-18T22:24:07.558Z,59.07
2022-12-18T22:26:39.869Z,59.24
2022-12-18T22:29:30.688Z,59.33
2022-12-18T22:31:59.381Z,59.91
2022-12-18T22:34:25.911Z,59.75
2022-12-18T22:36:52.617Z,60.06
2022-12-18T22:39:26.916Z,59.84
2022-12-18T22:41:55.599Z,59.33
2022-12-18T22:44:26.027Z,60.13
2022-12-18T22:47:05.510Z,60.34
2022-12-18T22:49:35.210Z,60.38
2022-12-18T22:52:02.448Z,60.39
2022-12-18T22:54:29.094Z,60.20
2022-12-18T22:56:55.632Z,59.32
2022-12-18T22:59:23.062Z,59.58
2022-12-18T23:01:51.490Z,59.04
2022-12-18T23:04:29.065Z,59.17
2022-12-18T23:07:02.457Z,59.27
2022-12-18T23:09:28.936Z,59.35
2022-12-18T23:11:55.401Z,59.56
2022-12-18T23:14:21.997Z,60.26
2022-12-18T23:16:48.997Z,59.96
2022-12-18T23:19:17.262Z,59.52
2022-12-18T23:21:43.782Z,59.73
2022-12-18T23:24:10.464Z,59.27
2022-12-18T23:26:37.291Z,59.59
2022-12-18T23:29:03.853Z,59.56
2022-12-18T23:31:32.887Z,60.08
2022-12-18T23:34:00.859Z,60.72
2022-12-18T23:36:27.728Z,59.79
2022-12-18T23:39:00.551Z,60.16
2022-12-18T23:41:30.108Z,60.49
2022-12-18T23:43:57.440Z,59.70
2022-12-18T23:46:29.561Z,59.07
2022-12-18T23:48:58.184Z,59.15
2022-12-18T23:51:25.647Z,59.34
2022-12-18T23:53:53.431Z,60.25
2022-12-18T23:56:20.529Z,59.75
2022-12-18T23:58:47.258Z,60.25
